Kars, Turkey
Current Conditions -  °F | °C
As of 10:50 AM on Wednesday 22 Oct 2014 (Local Time) from LTCF Reporting Station
Clear Clear  
Wind Chill: 11°   Ceiling: Unl
Heat Index: 11°   Visibility: 6mi
Dew Point:   Wind: 3mph
Humidity: 47%   Direction: 20°NNE
Pressure: 30.15"   Gusts: NA
Location:  40.59°N, 43.07°E
Report Text: LTCF 220750Z 02003KT CAVOK 11/00 Q1021
Loading
Personal Weather Stations






























Interactive Weather Map
Tropical Storm Tracking
New forecast layout! Learn more

10-Day Weather Forecast

Advertisements
Track Severe Weather on mobile